CheckWX is a tool to help pilots better visualize weather data.  It is not intended as a substitute for an official pre-flight weather briefing.

01:32:12 UTC

FABM METAR
Bethlehem Airport
Bethlehem, South Africa
Current

19 hours ago

FABM 230647Z 03002KT 9999 FEW020 19/14 Q1022
Observed
Feb-23 @ 06:47 UTC
Wind
  • 030° at 2 KTS
Visibility
10,000+ meters
Flight Rules
VFR
Cloud Levels
  • Few at 2,000' AGL
Temperature
19°C / 66°F
Dewpoint
14°C / 57°F
Humidity
73%
Altimeter
30.18" Hg
Pressure
1021.92 hPa